Time;durP1;ratioP1;P1;durP2;ratioP2;P2;SDS_P1;SDS_P2;PMS_P1;PMS_P2;Temp;Humidity;BMP_temperature;BMP_pressure;BME280_temperature;BME280_humidity;BME280_pressure;Samples;Min_cycle;Max_cycle;Signal;HPM_P1;HPM_P2
2023/12/05 00:02:16;;;;;;;;;;;;;;;17.86;61.05;101762.81;7401659;19;1505;-84
2023/12/05 00:04:45;;;;;;;;;;;;;;;17.80;61.40;101760.53;7409585;19;1409;-84
2023/12/05 00:07:13;;;;;;;;;;;;;;;17.83;61.28;101741.66;7406466;19;1858;-84
2023/12/05 00:09:42;;;;;;;;;;;;;;;17.86;61.31;101745.91;7405375;19;1675;-79
2023/12/05 00:12:10;;;;;;;;;;;;;;;17.83;61.35;101752.34;7395969;19;1547;-78
2023/12/05 00:14:41;;;;;;;;;;;;;;;17.83;61.55;101749.66;7396871;19;1726;-79
2023/12/05 00:17:10;;;;;;;;;;;;;;;17.81;61.35;101766.75;7397662;19;1619;-79
2023/12/05 00:19:38;;;;;;;;;;;;;;;17.81;61.28;101762.25;7397174;19;1952;-80
2023/12/05 00:22:07;;;;;;;;;;;;;;;17.78;61.47;101767.81;7395180;19;1742;-77
2023/12/05 00:24:36;;;;;;;;;;;;;;;17.76;61.54;101745.66;7396218;19;1788;-79
2023/12/05 00:27:04;;;;;;;;;;;;;;;17.73;61.70;101753.91;7397444;19;1664;-79
2023/12/05 00:29:33;;;;;;;;;;;;;;;17.86;61.04;101761.97;7397837;19;1389;-79
2023/12/05 00:32:04;;;;;;;;;;;;;;;18.11;60.71;101755.81;7398331;19;1473;-79
2023/12/05 00:34:32;;;;;;;;;;;;;;;18.52;59.95;101746.69;7398833;19;1843;-79
2023/12/05 00:37:01;;;;;;;;;;;;;;;18.77;59.23;101753.00;7397534;19;1741;-79
2023/12/05 00:39:29;;;;;;;;;;;;;;;18.52;59.96;101754.72;7398113;19;1848;-80
2023/12/05 00:41:58;;;;;;;;;;;;;;;18.41;60.03;101741.25;7398481;19;1748;-79
2023/12/05 00:44:26;;;;;;;;;;;;;;;18.30;60.14;101733.97;7398001;19;1941;-80
2023/12/05 00:46:55;;;;;;;;;;;;;;;18.16;60.42;101740.28;7399138;19;1575;-79
2023/12/05 00:49:26;;;;;;;;;;;;;;;18.13;60.98;101742.34;7398523;19;1572;-79
2023/12/05 00:51:54;;;;;;;;;;;;;;;18.01;60.93;101734.19;7397888;19;1761;-79
2023/12/05 00:54:23;;;;;;;;;;;;;;;17.95;61.31;101728.41;7397072;19;1513;-79
2023/12/05 00:56:52;;;;;;;;;;;;;;;17.87;61.24;101729.78;7396637;19;1670;-79
2023/12/05 00:59:20;;;;;;;;;;;;;;;17.83;61.28;101717.56;7395835;19;1836;-79
2023/12/05 01:01:49;;;;;;;;;;;;;;;17.79;61.65;101708.00;7384279;19;1634;-79
2023/12/05 01:04:17;;;;;;;;;;;;;;;17.77;61.68;101714.44;7398125;19;1609;-79
2023/12/05 01:06:49;;;;;;;;;;;;;;;17.73;61.81;101704.91;7405642;19;1749;-78
2023/12/05 01:09:18;;;;;;;;;;;;;;;17.74;61.77;101701.25;7404310;19;1738;-78
2023/12/05 01:11:47;;;;;;;;;;;;;;;17.80;61.53;101701.66;7405233;19;1741;-78
2023/12/05 01:14:15;;;;;;;;;;;;;;;17.80;61.47;101703.50;7400593;19;1560;-79
2023/12/05 01:16:44;;;;;;;;;;;;;;;17.73;61.70;101692.38;7402130;19;1536;-79
2023/12/05 01:19:12;;;;;;;;;;;;;;;17.78;61.63;101706.28;7403079;19;1846;-79
2023/12/05 01:21:41;;;;;;;;;;;;;;;17.74;61.42;101686.03;7405196;19;1361;-79
2023/12/05 01:24:15;;;;;;;;;;;;;;;17.81;61.57;101694.53;7405847;19;1569;-79
2023/12/05 01:26:43;;;;;;;;;;;;;;;18.11;60.89;101686.22;7401951;19;1568;-79
2023/12/05 01:29:12;;;;;;;;;;;;;;;18.59;59.78;101690.88;7403217;19;1738;-79
2023/12/05 01:31:40;;;;;;;;;;;;;;;18.64;59.75;101683.34;7404831;19;1639;-78
2023/12/05 01:34:09;;;;;;;;;;;;;;;18.33;59.96;101682.03;7401131;19;1576;-79
2023/12/05 01:36:37;;;;;;;;;;;;;;;18.28;60.29;101687.69;7401169;19;1579;-79
2023/12/05 01:39:05;;;;;;;;;;;;;;;18.20;60.32;101674.00;7403438;19;1822;-79
2023/12/05 01:41:36;;;;;;;;;;;;;;;18.01;60.79;101685.16;7406286;19;1477;-79
2023/12/05 01:44:05;;;;;;;;;;;;;;;17.92;61.25;101680.44;7404427;19;1686;-77
2023/12/05 01:46:33;;;;;;;;;;;;;;;17.82;61.29;101686.38;7401862;19;1772;-77
2023/12/05 01:49:02;;;;;;;;;;;;;;;17.84;61.39;101670.25;7408805;19;1846;-77
2023/12/05 01:51:34;;;;;;;;;;;;;;;17.87;61.32;101667.38;7409186;19;1733;-77
2023/12/05 01:54:03;;;;;;;;;;;;;;;17.82;61.28;101674.81;7411518;19;1805;-77
2023/12/05 01:56:32;;;;;;;;;;;;;;;17.80;61.29;101666.03;7406122;19;1782;-77
2023/12/05 01:59:04;;;;;;;;;;;;;;;17.75;61.43;101660.16;7404888;19;1847;-77
2023/12/05 02:01:32;;;;;;;;;;;;;;;17.70;61.67;101658.63;7392288;19;1643;-76
2023/12/05 02:04:01;;;;;;;;;;;;;;;17.68;62.06;101646.34;7409289;19;1652;-83
2023/12/05 02:06:31;;;;;;;;;;;;;;;18.01;60.86;101648.53;7409808;19;1679;-83
2023/12/05 02:09:00;;;;;;;;;;;;;;;18.55;59.52;101652.75;7409866;19;1694;-83
2023/12/05 02:11:32;;;;;;;;;;;;;;;18.85;58.71;101640.78;7407261;19;1627;-83
2023/12/05 02:14:04;;;;;;;;;;;;;;;18.48;59.50;101635.38;7407262;19;1551;-83
2023/12/05 02:16:37;;;;;;;;;;;;;;;18.31;59.95;101628.59;7406822;19;1667;-84
2023/12/05 02:19:24;;;;;;;;;;;;;;;18.23;60.18;101626.44;7405065;19;1857;-83
2023/12/05 02:21:56;;;;;;;;;;;;;;;18.16;60.58;101625.16;7403005;19;1922;-83
2023/12/05 02:24:35;;;;;;;;;;;;;;;18.03;60.75;101608.28;7429092;19;1675;-83
2023/12/05 02:27:09;;;;;;;;;;;;;;;17.98;60.77;101621.13;7412175;19;1822;-84
2023/12/05 02:29:49;;;;;;;;;;;;;;;17.95;61.08;101619.53;7414164;19;1674;-84
2023/12/05 02:32:18;;;;;;;;;;;;;;;17.81;61.46;101604.41;7406092;19;1642;-83
2023/12/05 02:34:46;;;;;;;;;;;;;;;18.16;60.65;101601.06;7408354;19;1370;-84
2023/12/05 02:37:18;;;;;;;;;;;;;;;18.73;59.15;101596.13;7401499;19;1462;-83
2023/12/05 02:39:51;;;;;;;;;;;;;;;19.43;57.42;101590.81;7411307;19;1859;-83
2023/12/05 02:42:23;;;;;;;;;;;;;;;19.43;57.18;101592.63;7413692;19;1623;-83
2023/12/05 02:44:55;;;;;;;;;;;;;;;18.86;58.36;101587.09;7404494;19;1632;-83
2023/12/05 02:47:29;;;;;;;;;;;;;;;18.54;59.29;101597.44;7401615;19;1576;-83
2023/12/05 02:49:58;;;;;;;;;;;;;;;18.35;59.77;101586.38;7407026;19;1785;-83
2023/12/05 02:52:26;;;;;;;;;;;;;;;18.49;59.64;101594.25;7404068;19;1766;-83
2023/12/05 02:54:54;;;;;;;;;;;;;;;19.02;58.53;101586.78;7398511;19;1654;-82
2023/12/05 02:57:23;;;;;;;;;;;;;;;19.75;56.81;101582.09;7400678;19;1639;-82
2023/12/05 02:59:54;;;;;;;;;;;;;;;20.34;55.32;101569.41;7397073;19;1867;-82
2023/12/05 03:02:22;;;;;;;;;;;;;;;20.50;54.77;101575.22;7386409;19;1558;-81
2023/12/05 03:04:50;;;;;;;;;;;;;;;20.67;54.54;101587.28;7403387;19;1598;-82
2023/12/05 03:07:21;;;;;;;;;;;;;;;20.20;55.60;101584.81;7404436;19;1934;-83
2023/12/05 03:09:55;;;;;;;;;;;;;;;20.16;55.68;101594.09;7400742;19;1964;-83
2023/12/05 03:12:23;;;;;;;;;;;;;;;20.21;55.73;101581.16;7399658;19;1576;-82
2023/12/05 03:14:54;;;;;;;;;;;;;;;20.12;55.86;101578.34;7400983;19;1537;-82
2023/12/05 03:17:20;;;;;;;;;;;;;;;20.04;55.98;101573.59;7400590;19;1691;-82
2023/12/05 03:19:49;;;;;;;;;;;;;;;20.08;56.08;101580.41;7400584;19;1874;-82
2023/12/05 03:22:17;;;;;;;;;;;;;;;20.07;56.07;101578.69;7399892;19;1921;-82
2023/12/05 03:24:51;;;;;;;;;;;;;;;20.04;56.21;101565.53;7402424;19;1677;-82
2023/12/05 03:27:20;;;;;;;;;;;;;;;20.10;56.02;101554.28;7396991;19;1663;-82
2023/12/05 03:29:48;;;;;;;;;;;;;;;19.90;55.43;101474.53;7395514;19;1749;-83
2023/12/05 03:32:29;;;;;;;;;;;;;;;20.31;55.51;101575.00;7400543;19;1528;-83
2023/12/05 03:34:57;;;;;;;;;;;;;;;20.23;55.46;101551.47;7401933;19;1423;-83
2023/12/05 03:37:26;;;;;;;;;;;;;;;20.20;55.97;101533.78;7400921;19;1474;-83
2023/12/05 03:39:54;;;;;;;;;;;;;;;20.28;55.73;101543.91;7399264;19;1843;-83
2023/12/05 03:42:23;;;;;;;;;;;;;;;20.25;55.61;101538.75;7401805;19;1662;-83
2023/12/05 03:44:51;;;;;;;;;;;;;;;20.35;55.39;101520.06;7400740;19;1576;-83
2023/12/05 03:47:19;;;;;;;;;;;;;;;20.40;55.24;101521.41;7399457;19;1929;-83
2023/12/05 03:49:50;;;;;;;;;;;;;;;20.43;55.29;101541.78;7401688;19;1592;-83
2023/12/05 03:52:19;;;;;;;;;;;;;;;20.49;55.06;101524.31;7401076;19;1520;-82
2023/12/05 03:54:47;;;;;;;;;;;;;;;20.53;54.77;101515.88;7398788;19;1763;-82
2023/12/05 03:57:15;;;;;;;;;;;;;;;20.44;55.03;101544.34;7399589;19;1656;-82
2023/12/05 03:59:49;;;;;;;;;;;;;;;20.40;55.31;101542.03;7400262;19;1892;-83
2023/12/05 04:02:18;;;;;;;;;;;;;;;19.74;56.94;101544.69;7386049;19;1484;-84
2023/12/05 04:04:46;;;;;;;;;;;;;;;19.37;57.83;101539.47;7401932;19;1746;-84
2023/12/05 04:07:17;;;;;;;;;;;;;;;19.07;58.55;101535.50;7407065;19;1406;-83
2023/12/05 04:09:48;;;;;;;;;;;;;;;18.90;58.64;101531.44;7408878;19;1762;-83
2023/12/05 04:12:16;;;;;;;;;;;;;;;18.82;58.99;101547.22;7409079;19;1757;-83
2023/12/05 04:14:53;;;;;;;;;;;;;;;19.12;58.26;101548.53;7409942;19;1614;-83
2023/12/05 04:17:21;;;;;;;;;;;;;;;19.63;56.90;101548.16;7409297;19;1785;-83
2023/12/05 04:19:50;;;;;;;;;;;;;;;19.88;56.28;101547.13;7409171;19;1867;-83
2023/12/05 04:22:21;;;;;;;;;;;;;;;20.03;55.90;101556.63;7411180;19;1879;-83
2023/12/05 04:24:50;;;;;;;;;;;;;;;19.96;56.20;101554.56;7408625;19;1753;-83
2023/12/05 04:27:18;;;;;;;;;;;;;;;19.75;56.64;101535.63;7402895;19;1684;-83
2023/12/05 04:29:47;;;;;;;;;;;;;;;19.71;56.75;101561.84;7403655;19;1658;-83
2023/12/05 04:32:13;;;;;;;;;;;;;;;19.70;56.82;101548.56;7405771;19;1888;-84
2023/12/05 04:34:43;;;;;;;;;;;;;;;19.74;56.48;101560.78;7404049;19;1391;-84
2023/12/05 04:37:11;;;;;;;;;;;;;;;19.80;56.36;101566.50;7403833;19;1583;-83
2023/12/05 04:39:43;;;;;;;;;;;;;;;19.88;55.92;101546.28;7402885;19;1855;-85
2023/12/05 04:42:11;;;;;;;;;;;;;;;19.92;55.92;101563.84;7407122;19;1487;-84
2023/12/05 04:44:40;;;;;;;;;;;;;;;19.94;55.98;101554.69;7406252;19;1662;-84
2023/12/05 04:47:08;;;;;;;;;;;;;;;19.98;56.14;101569.56;7404779;19;1556;-83
2023/12/05 04:49:37;;;;;;;;;;;;;;;19.93;56.28;101554.78;7398410;19;1492;-84
2023/12/05 04:52:06;;;;;;;;;;;;;;;19.94;56.62;101562.72;7399269;19;1749;-84
2023/12/05 04:54:34;;;;;;;;;;;;;;;19.92;56.74;101553.94;7400159;19;1429;-83
2023/12/05 04:57:06;;;;;;;;;;;;;;;20.05;56.69;101549.31;7404347;19;1619;-83
2023/12/05 04:59:34;;;;;;;;;;;;;;;19.91;56.09;101546.84;7404027;19;1877;-84
2023/12/05 05:02:03;;;;;;;;;;;;;;;19.82;56.50;101547.59;7399131;19;1515;-84
2023/12/05 05:04:31;;;;;;;;;;;;;;;19.78;56.37;101525.53;7395055;19;1165;-83
2023/12/05 05:07:00;;;;;;;;;;;;;;;19.85;56.08;101537.47;7401271;19;1536;-83
2023/12/05 05:09:28;;;;;;;;;;;;;;;19.79;56.46;101542.47;7400687;19;1494;-84
2023/12/05 05:11:56;;;;;;;;;;;;;;;19.86;56.52;101528.44;7401187;19;1370;-84
2023/12/05 05:14:27;;;;;;;;;;;;;;;19.91;56.28;101535.28;7401412;19;1568;-85
2023/12/05 05:16:56;;;;;;;;;;;;;;;19.92;56.40;101515.53;7397567;19;1906;-84
2023/12/05 05:19:24;;;;;;;;;;;;;;;19.90;56.45;101515.63;7398965;19;1849;-84
2023/12/05 05:21:53;;;;;;;;;;;;;;;19.96;56.21;101515.13;7239166;19;12715;-83
2023/12/05 05:24:22;;;;;;;;;;;;;;;19.93;56.25;101501.09;7391469;19;1831;-85
2023/12/05 05:26:54;;;;;;;;;;;;;;;19.88;56.62;101519.44;7403328;19;1020;-85
2023/12/05 05:29:23;;;;;;;;;;;;;;;19.85;56.70;101515.97;7402371;19;1355;-85
2023/12/05 05:31:55;;;;;;;;;;;;;;;19.82;56.69;101521.63;7402315;19;1497;-84
2023/12/05 05:34:23;;;;;;;;;;;;;;;19.84;57.12;101513.44;7401841;19;1863;-85
2023/12/05 05:36:52;;;;;;;;;;;;;;;19.86;56.94;101531.13;7402508;19;1934;-84
2023/12/05 05:39:20;;;;;;;;;;;;;;;19.83;57.12;101523.31;7402010;19;1860;-85
2023/12/05 05:41:49;;;;;;;;;;;;;;;19.90;56.96;101523.69;7400015;19;1837;-85
2023/12/05 05:44:17;;;;;;;;;;;;;;;19.84;57.00;101535.75;7402560;19;1544;-85
2023/12/05 05:46:46;;;;;;;;;;;;;;;19.83;57.19;101538.56;7400578;19;1293;-83
2023/12/05 05:49:18;;;;;;;;;;;;;;;19.87;57.17;101526.59;7401759;19;1808;-84
2023/12/05 05:51:46;;;;;;;;;;;;;;;20.01;56.73;101522.81;7400562;19;1478;-83
2023/12/05 05:54:14;;;;;;;;;;;;;;;20.02;57.05;101524.53;7407064;19;1407;-85
2023/12/05 05:56:43;;;;;;;;;;;;;;;19.98;56.52;101515.88;7409380;19;1940;-85
2023/12/05 05:59:12;;;;;;;;;;;;;;;20.10;55.63;101507.81;7407482;19;1579;-86
2023/12/05 06:01:42;;;;;;;;;;;;;;;19.54;56.67;101490.72;7406310;19;1887;-83
2023/12/05 06:04:11;;;;;;;;;;;;;;;19.21;57.50;101511.16;7397641;19;1728;-83
2023/12/05 06:06:42;;;;;;;;;;;;;;;18.92;57.13;101505.38;7406575;19;1132;-82
2023/12/05 06:09:10;;;;;;;;;;;;;;;18.73;56.68;101510.38;7404689;19;1559;-83
2023/12/05 06:11:38;;;;;;;;;;;;;;;18.71;56.13;101499.78;7404991;19;1755;-82
2023/12/05 06:14:07;;;;;;;;;;;;;;;18.74;56.17;101487.97;7402114;19;1472;-82
2023/12/05 06:16:35;;;;;;;;;;;;;;;19.06;55.53;101489.06;7405025;19;1402;-82
2023/12/05 06:19:04;;;;;;;;;;;;;;;19.33;54.75;101493.25;7404262;19;1780;-83
2023/12/05 06:21:32;;;;;;;;;;;;;;;19.70;53.97;101473.41;7404168;19;1900;-82
2023/12/05 06:24:03;;;;;;;;;;;;;;;19.88;53.41;101497.94;7404169;19;1410;-82
2023/12/05 06:26:32;;;;;;;;;;;;;;;19.93;53.03;101495.72;7406792;19;1897;-83
2023/12/05 06:29:00;;;;;;;;;;;;;;;19.85;53.31;101493.66;7406362;19;1835;-82
2023/12/05 06:31:29;;;;;;;;;;;;;;;19.82;53.45;101489.41;7407324;19;1504;-82
2023/12/05 06:33:57;;;;;;;;;;;;;;;19.81;53.64;101487.69;7403374;19;1459;-83
2023/12/05 06:36:25;;;;;;;;;;;;;;;19.81;53.62;101490.38;7405314;19;1767;-82
2023/12/05 06:38:54;;;;;;;;;;;;;;;19.80;53.44;101469.88;7403198;19;1747;-82
2023/12/05 06:41:25;;;;;;;;;;;;;;;19.82;53.58;101473.31;7400098;19;1831;-82
2023/12/05 06:43:54;;;;;;;;;;;;;;;19.82;53.57;101484.03;7401651;19;1556;-82
2023/12/05 06:46:22;;;;;;;;;;;;;;;19.81;53.78;101486.84;7401830;19;1036;-82
2023/12/05 06:48:52;;;;;;;;;;;;;;;19.80;53.54;101466.34;7404097;19;1820;-82
2023/12/05 06:51:21;;;;;;;;;;;;;;;19.81;53.42;101460.84;7405072;19;1434;-82
2023/12/05 06:53:50;;;;;;;;;;;;;;;19.85;53.59;101450.72;7405367;19;1934;-83
2023/12/05 06:56:21;;;;;;;;;;;;;;;19.80;53.68;101436.84;7404991;19;847;-82
2023/12/05 06:58:52;;;;;;;;;;;;;;;19.86;53.49;101437.19;7406636;19;1484;-83
2023/12/05 07:01:22;;;;;;;;;;;;;;;19.83;53.68;101437.41;7404667;19;1842;-82
2023/12/05 07:03:50;;;;;;;;;;;;;;;19.79;53.65;101441.31;7393651;19;1145;-82
2023/12/05 07:06:20;;;;;;;;;;;;;;;19.83;53.49;101420.47;7404246;19;1807;-83
2023/12/05 07:08:48;;;;;;;;;;;;;;;19.84;53.56;101411.44;7404733;19;1545;-82
2023/12/05 07:11:16;;;;;;;;;;;;;;;19.86;53.65;101420.22;7406787;19;996;-82
2023/12/05 07:13:45;;;;;;;;;;;;;;;19.90;53.30;101412.78;7414038;19;1767;-82
2023/12/05 07:16:16;;;;;;;;;;;;;;;19.92;53.43;101394.72;7408098;19;1488;-82
2023/12/05 07:18:44;;;;;;;;;;;;;;;19.96;53.16;101397.03;7407526;19;1103;-82
2023/12/05 07:21:13;;;;;;;;;;;;;;;19.99;53.21;101390.53;7405853;19;1848;-82
2023/12/05 07:23:41;;;;;;;;;;;;;;;19.93;53.48;101383.00;7400235;19;1460;-82
2023/12/05 07:26:10;;;;;;;;;;;;;;;19.98;53.42;101391.53;7402444;19;1367;-82
2023/12/05 07:28:38;;;;;;;;;;;;;;;19.99;53.23;101382.47;7407833;19;1866;-82
2023/12/05 07:31:10;;;;;;;;;;;;;;;19.99;53.20;101377.97;7404909;19;1768;-81
2023/12/05 07:33:41;;;;;;;;;;;;;;;20.06;53.30;101386.38;7404401;19;1918;-82
2023/12/05 07:36:11;;;;;;;;;;;;;;;20.03;53.12;101375.88;7406103;19;1458;-82
2023/12/05 07:38:39;;;;;;;;;;;;;;;20.08;53.16;101357.56;7403386;19;1800;-82
2023/12/05 07:41:08;;;;;;;;;;;;;;;20.12;53.21;101375.13;7404447;19;1818;-82
2023/12/05 07:43:37;;;;;;;;;;;;;;;20.11;53.10;101384.16;7405142;19;1953;-83
2023/12/05 07:46:07;;;;;;;;;;;;;;;20.09;53.13;101372.69;7403941;19;1019;-83
2023/12/05 07:48:36;;;;;;;;;;;;;;;20.10;53.20;101376.25;7401726;19;1082;-83
2023/12/05 07:51:07;;;;;;;;;;;;;;;20.09;53.21;101367.31;7401810;19;1890;-83
2023/12/05 07:53:35;;;;;;;;;;;;;;;20.13;53.24;101379.50;7401470;19;1012;-83
2023/12/05 07:56:04;;;;;;;;;;;;;;;20.09;53.40;101396.84;7400813;19;1434;-82
2023/12/05 07:58:32;;;;;;;;;;;;;;;20.10;53.33;101405.78;7401981;19;1459;-82
2023/12/05 08:01:04;;;;;;;;;;;;;;;20.18;53.14;101406.00;7399825;19;1826;-82
2023/12/05 08:03:35;;;;;;;;;;;;;;;20.15;53.10;101392.81;7389535;19;1357;-83
2023/12/05 08:06:07;;;;;;;;;;;;;;;20.15;53.19;101419.66;7404922;19;1097;-83
2023/12/05 08:08:35;;;;;;;;;;;;;;;20.20;53.04;101407.56;7404425;19;1685;-82
2023/12/05 08:11:06;;;;;;;;;;;;;;;20.15;53.42;101382.91;7402885;19;1814;-82
2023/12/05 08:13:35;;;;;;;;;;;;;;;20.19;53.38;101387.06;7408443;19;996;-82
2023/12/05 08:16:04;;;;;;;;;;;;;;;20.19;53.16;101375.44;7407109;19;1118;-82
2023/12/05 08:18:33;;;;;;;;;;;;;;;20.18;53.41;101366.56;7407844;19;1518;-82
2023/12/05 08:21:01;;;;;;;;;;;;;;;19.71;54.36;101373.13;7404223;19;1819;-82
2023/12/05 08:23:32;;;;;;;;;;;;;;;19.36;55.18;101382.19;7403905;19;1483;-81
2023/12/05 08:26:01;;;;;;;;;;;;;;;19.09;56.13;101378.06;7406353;19;1078;-82
2023/12/05 08:28:29;;;;;;;;;;;;;;;19.01;55.77;101375.97;7403235;19;1512;-82
2023/12/05 08:30:58;;;;;;;;;;;;;;;19.40;55.06;101372.97;7403246;19;1830;-81
2023/12/05 08:33:26;;;;;;;;;;;;;;;19.68;54.57;101359.00;7401122;19;1078;-81
2023/12/05 08:35:54;;;;;;;;;;;;;;;19.80;54.13;101359.84;7399934;19;1382;-81
2023/12/05 08:38:23;;;;;;;;;;;;;;;19.43;55.18;101360.13;7400351;19;1637;-82
2023/12/05 08:40:54;;;;;;;;;;;;;;;19.18;55.43;101360.38;7401084;19;1822;-82
2023/12/05 08:43:22;;;;;;;;;;;;;;;19.01;56.00;101359.91;7398683;19;1853;-82
2023/12/05 08:45:51;;;;;;;;;;;;;;;19.35;55.45;101367.94;7402556;19;1048;-81
2023/12/05 08:48:19;;;;;;;;;;;;;;;19.57;54.64;101350.13;7404580;19;1823;-81
2023/12/05 08:50:47;;;;;;;;;;;;;;;19.80;54.29;101369.75;7400916;19;1866;-81
2023/12/05 08:53:16;;;;;;;;;;;;;;;19.57;54.69;101355.47;7402569;19;1910;-81
2023/12/05 08:55:45;;;;;;;;;;;;;;;19.24;55.36;101367.97;7403154;19;1933;-81
2023/12/05 08:58:16;;;;;;;;;;;;;;;19.00;55.99;101368.06;7404477;19;980;-82
2023/12/05 09:00:44;;;;;;;;;;;;;;;19.12;55.61;101374.28;7406906;19;1834;-81
2023/12/05 09:03:14;;;;;;;;;;;;;;;19.44;54.98;101347.59;7402033;19;1503;-82
2023/12/05 09:05:42;;;;;;;;;;;;;;;19.74;54.31;101363.03;7393223;19;1743;-82
2023/12/05 09:08:11;;;;;;;;;;;;;;;19.67;54.17;101345.69;7395798;19;1418;-82
2023/12/05 09:10:39;;;;;;;;;;;;;;;19.34;55.03;101363.56;7401259;19;1806;-82
2023/12/05 09:13:07;;;;;;;;;;;;;;;19.08;55.56;101349.56;7402297;19;1894;-82
2023/12/05 09:15:38;;;;;;;;;;;;;;;18.97;55.99;101345.03;7403166;19;1165;-81
2023/12/05 09:18:07;;;;;;;;;;;;;;;19.36;55.09;101326.75;7402250;19;1826;-82
2023/12/05 09:20:35;;;;;;;;;;;;;;;19.70;54.21;101318.63;7403459;19;1776;-82
2023/12/05 09:23:03;;;;;;;;;;;;;;;20.00;53.74;101325.16;7400726;19;1865;-82
2023/12/05 09:25:32;;;;;;;;;;;;;;;20.16;53.16;101330.91;7397657;19;1492;-82
2023/12/05 09:28:02;;;;;;;;;;;;;;;20.16;53.38;101312.13;7404665;19;1401;-82
2023/12/05 09:30:30;;;;;;;;;;;;;;;20.24;53.06;101316.84;7402402;19;1902;-82
2023/12/05 09:33:01;;;;;;;;;;;;;;;20.14;53.26;101310.56;7406605;19;1697;-81
2023/12/05 09:35:30;;;;;;;;;;;;;;;20.10;53.44;101309.97;7405378;19;1747;-82
2023/12/05 09:37:59;;;;;;;;;;;;;;;20.14;53.40;101300.66;7403038;19;1487;-81
2023/12/05 09:40:27;;;;;;;;;;;;;;;20.10;53.49;101293.84;7405076;19;1403;-82
2023/12/05 09:42:57;;;;;;;;;;;;;;;20.12;53.53;101291.03;7405671;19;1840;-82
2023/12/05 09:45:27;;;;;;;;;;;;;;;20.15;53.45;101291.59;7407145;19;1929;-82
2023/12/05 09:47:57;;;;;;;;;;;;;;;20.17;53.51;101281.59;7410150;19;1721;-82
2023/12/05 09:50:28;;;;;;;;;;;;;;;20.19;53.41;101293.09;7409088;19;1003;-82
2023/12/05 09:53:01;;;;;;;;;;;;;;;20.21;53.13;101275.00;7409633;19;1290;-82
2023/12/05 09:55:29;;;;;;;;;;;;;;;19.92;54.06;101284.69;7405951;19;1400;-82
2023/12/05 09:57:58;;;;;;;;;;;;;;;19.51;54.78;101287.09;7405030;19;1488;-82
2023/12/05 10:00:28;;;;;;;;;;;;;;;19.23;55.37;101278.59;7408179;19;1858;-82
2023/12/05 10:02:57;;;;;;;;;;;;;;;19.07;55.85;101289.72;7405749;19;1834;-82
2023/12/05 10:05:29;;;;;;;;;;;;;;;19.44;55.13;101281.38;7397756;19;1167;-82
2023/12/05 10:07:58;;;;;;;;;;;;;;;19.76;54.27;101259.13;7401897;19;1384;-82
2023/12/05 10:10:27;;;;;;;;;;;;;;;20.05;53.63;101263.84;7408665;19;1047;-82
2023/12/05 10:12:56;;;;;;;;;;;;;;;20.04;53.65;101262.16;7406386;19;1496;-82
2023/12/05 10:15:25;;;;;;;;;;;;;;;20.14;53.46;101259.53;7407686;19;1917;-81
2023/12/05 10:18:00;;;;;;;;;;;;;;;20.11;53.63;101247.22;7406588;19;1906;-82
2023/12/05 10:20:31;;;;;;;;;;;;;;;20.18;53.36;101251.09;7407704;19;1000;-82
2023/12/05 10:23:00;;;;;;;;;;;;;;;19.80;54.25;101248.97;7406485;19;1906;-82
2023/12/05 10:25:28;;;;;;;;;;;;;;;19.41;55.10;101237.88;7405539;19;1486;-83
2023/12/05 10:28:06;;;;;;;;;;;;;;;19.13;55.75;101245.47;7405773;19;1851;-82
2023/12/05 10:30:37;;;;;;;;;;;;;;;19.14;55.81;101240.97;7405301;19;1472;-82
2023/12/05 10:33:13;;;;;;;;;;;;;;;19.58;55.00;101223.06;7407161;19;1495;-82
2023/12/05 10:35:45;;;;;;;;;;;;;;;19.94;53.98;101231.72;7409261;19;1819;-82
2023/12/05 10:38:14;;;;;;;;;;;;;;;20.03;53.69;101239.84;7406154;19;1422;-82
2023/12/05 10:41:00;;;;;;;;;;;;;;;20.09;53.64;101232.22;7408706;19;969;-83
2023/12/05 10:43:34;;;;;;;;;;;;;;;20.14;53.37;101214.75;7407368;19;1802;-83
2023/12/05 10:46:03;;;;;;;;;;;;;;;20.18;53.34;101224.22;7410614;19;1005;-82
2023/12/05 10:48:33;;;;;;;;;;;;;;;20.06;53.39;101212.72;7414623;19;1843;-82
2023/12/05 10:51:04;;;;;;;;;;;;;;;20.08;53.69;101220.63;7417793;19;1330;-82
2023/12/05 10:53:36;;;;;;;;;;;;;;;20.14;53.52;101204.00;7413424;19;1748;-82
2023/12/05 10:56:12;;;;;;;;;;;;;;;19.71;54.46;101202.28;7414081;19;1606;-82
2023/12/05 10:58:42;;;;;;;;;;;;;;;19.45;55.00;101215.16;7413149;19;1411;-81
2023/12/05 11:01:11;;;;;;;;;;;;;;;19.16;55.88;101213.06;7413098;19;1165;-83
2023/12/05 11:03:40;;;;;;;;;;;;;;;19.03;55.78;101223.09;7409573;19;1865;-83
2023/12/05 11:06:13;;;;;;;;;;;;;;;19.42;55.17;101223.50;7402986;19;1383;-83
2023/12/05 11:08:41;;;;;;;;;;;;;;;19.72;54.56;101209.38;7410327;19;1107;-83
2023/12/05 11:11:10;;;;;;;;;;;;;;;19.91;54.03;101197.06;7410948;19;1086;-82
2023/12/05 11:13:38;;;;;;;;;;;;;;;19.99;53.73;101199.94;7404467;19;1471;-83
2023/12/05 11:16:11;;;;;;;;;;;;;;;20.08;53.77;101191.09;7410052;19;1145;-82
2023/12/05 11:18:43;;;;;;;;;;;;;;;20.11;53.43;101208.78;7403476;19;1395;-83
2023/12/05 11:21:20;;;;;;;;;;;;;;;19.94;53.62;101203.03;7406633;19;1583;-82
2023/12/05 11:23:59;;;;;;;;;;;;;;;19.52;54.85;101212.81;7404289;19;1824;-82
2023/12/05 11:26:36;;;;;;;;;;;;;;;19.17;55.60;101196.00;7406319;19;1438;-82
2023/12/05 11:29:08;;;;;;;;;;;;;;;19.00;56.12;101201.88;7404813;19;1655;-82
2023/12/05 11:31:43;;;;;;;;;;;;;;;19.38;55.20;101197.91;7407842;19;1513;-83
2023/12/05 11:34:30;;;;;;;;;;;;;;;19.73;54.68;101196.78;7404477;19;1396;-83
2023/12/05 11:37:08;;;;;;;;;;;;;;;19.97;53.83;101192.00;7407796;19;1240;-83
2023/12/05 11:39:36;;;;;;;;;;;;;;;19.97;53.72;101188.47;7403491;19;1775;-83
2023/12/05 11:42:12;;;;;;;;;;;;;;;20.07;53.54;101181.34;7406803;19;1828;-83
2023/12/05 11:44:40;;;;;;;;;;;;;;;20.06;53.53;101168.91;7405899;19;1399;-83
2023/12/05 11:47:15;;;;;;;;;;;;;;;20.01;53.77;101160.38;7406145;19;1091;-83
2023/12/05 11:49:53;;;;;;;;;;;;;;;20.06;53.50;101153.66;7399463;19;1779;-82
2023/12/05 11:52:24;;;;;;;;;;;;;;;20.02;53.75;101146.00;7406185;19;1754;-83
2023/12/05 11:54:53;;;;;;;;;;;;;;;19.85;54.23;101148.28;7401573;19;1871;-82
2023/12/05 11:57:23;;;;;;;;;;;;;;;19.42;55.03;101138.50;7400136;19;1734;-82
2023/12/05 11:59:54;;;;;;;;;;;;;;;19.14;55.74;101148.00;7404351;19;1516;-83
2023/12/05 12:02:38;;;;;;;;;;;;;;;18.96;56.26;101136.09;7402813;19;1836;-83
2023/12/05 12:05:07;;;;;;;;;;;;;;;19.28;55.50;101145.03;7395480;19;1480;-83
2023/12/05 12:07:44;;;;;;;;;;;;;;;19.51;54.62;101136.03;7404137;19;1552;-81
2023/12/05 12:10:12;;;;;;;;;;;;;;;19.69;53.76;101131.78;7403177;19;1866;-82
2023/12/05 12:12:41;;;;;;;;;;;;;;;19.88;53.59;101143.66;7403535;19;1821;-82
2023/12/05 12:15:11;;;;;;;;;;;;;;;19.95;53.45;101140.28;7403391;19;1838;-83
2023/12/05 12:17:42;;;;;;;;;;;;;;;19.98;53.41;101145.41;7401999;19;1593;-82
2023/12/05 12:20:13;;;;;;;;;;;;;;;19.92;53.61;101134.38;7401782;19;1643;-82
2023/12/05 12:22:44;;;;;;;;;;;;;;;19.82;53.74;101135.16;7402016;19;1859;-82
2023/12/05 12:25:14;;;;;;;;;;;;;;;19.36;54.63;101117.56;7400998;19;1508;-82
2023/12/05 12:27:48;;;;;;;;;;;;;;;19.13;55.49;101126.69;7401065;19;1544;-82
2023/12/05 12:30:17;;;;;;;;;;;;;;;18.95;55.47;101129.06;7399158;19;1543;-82
2023/12/05 12:32:55;;;;;;;;;;;;;;;19.14;55.39;101134.59;7399101;19;1583;-82
2023/12/05 12:35:25;;;;;;;;;;;;;;;19.32;55.31;101118.81;7405013;19;1358;-81
2023/12/05 12:37:56;;;;;;;;;;;;;;;19.54;54.83;101119.69;7408402;19;1541;-82
2023/12/05 12:40:25;;;;;;;;;;;;;;;19.67;54.37;101129.22;7406683;19;1388;-81
2023/12/05 12:42:54;;;;;;;;;;;;;;;19.75;54.02;101128.59;7405035;19;1842;-81
2023/12/05 12:45:24;;;;;;;;;;;;;;;19.75;53.88;101123.22;7408774;19;1670;-82
2023/12/05 12:47:53;;;;;;;;;;;;;;;19.74;53.98;101126.91;7405158;19;1699;-81
2023/12/05 12:50:22;;;;;;;;;;;;;;;19.79;54.14;101130.03;7409407;19;1598;-82
2023/12/05 12:52:53;;;;;;;;;;;;;;;19.76;54.17;101135.69;7402066;19;1573;-81
2023/12/05 12:55:24;;;;;;;;;;;;;;;19.71;54.16;101127.16;7399562;19;1875;-81
2023/12/05 12:57:53;;;;;;;;;;;;;;;19.81;54.13;101128.06;7399858;19;1678;-82
2023/12/05 13:00:30;;;;;;;;;;;;;;;19.84;54.09;101132.34;7400495;19;1645;-82
2023/12/05 13:02:59;;;;;;;;;;;;;;;19.76;54.39;101132.16;7413642;19;1878;-82